首页
METAR-TAF:

METAR-TAF

机场 :

葉梅利亞諾夫國際機場

克拉斯諾亞爾斯克, 俄罗斯

纬度: 56-10-18N, 经度: 092-29-36E, 海拔: 287米

当前天气观测

该预报发布于32分钟前的09:30 UTC
风速8节,风向西
温度 3°C
湿度 81%
气压 1024 hPa
能见度10公里或以上
散云层高于4100英尺, 积雨云.

METAR: UNKL 090930Z 28004MPS 9999 SCT041CB 03/00 Q1024 R29/290050 NOSIG RMK QFE742

时间: 17:02 (10:02 UTC)

预报

该预报发布于2小时和10分钟前的07:52 UTC
预报有效从09日的 09点(UTC)到 10日的 09点(UTC)
风速6节,风向西转西北,有时为19节阵风
能見度: 6000
多云层高于1600英尺, 积雨云.
小阵雪
短暂存在
从 09日的 09点(UTC)到 09日的 16点(UTC)
能見度: 3100
散云层高于1100英尺
多云层高于1600英尺, 积雨云.
小阵雪
短暂存在
从 09日的 16点(UTC)到 09日的 21点(UTC)
能見度: 1000
散云层高于900英尺
多云层高于1600英尺, 积雨云.
阵雪

TAF: UNKL 090752Z 0909/1009 29003G10MPS 6000 -SHSN BKN016CB TEMPO 0909/0916 3100 -SHSN SCT011 BKN016CB TEMPO 0916/0921 1000 SHSN SCT009 BKN016CB

超过4000个机场的气象观测和天气预报(METAR&TAF报告)。

可查询的气象台以黄色和红色小点在地图上表示。

将鼠标移到小点上方,可查看气象台名称。

然后点击查看天气观测和预报。

如需切换地图:点击带黑十字的绿色按钮放大地图;点击带横线的绿色按钮缩小地图;或者点击绿色箭头查看邻近地区的地图。


METAR-TAF: